Time;durP1;ratioP1;P1;durP2;ratioP2;P2;SDS_P1;SDS_P2;PMS_P1;PMS_P2;Temp;Humidity;BMP_temperature;BMP_pressure;BME280_temperature;BME280_humidity;BME280_pressure;Samples;Min_cycle;Max_cycle;Signal;HPM_P1;HPM_P2
2022/11/30 00:00:27;;;;;;;1999.90;999.90;;;3.70;99.90;;;;;;5072622;28;20364;-76
2022/11/30 00:02:53;;;;;;;1999.90;999.90;;;3.60;99.90;;;;;;5073478;28;20487;-76
2022/11/30 00:05:19;;;;;;;1999.90;999.90;;;3.70;99.90;;;;;;5073614;28;20478;-80
2022/11/30 00:07:46;;;;;;;1999.90;999.90;;;3.60;99.90;;;;;;5073112;28;20052;-80
2022/11/30 00:10:12;;;;;;;1999.90;999.90;;;3.60;99.90;;;;;;5071521;28;20480;-80
2022/11/30 00:12:41;;;;;;;1999.90;999.90;;;3.60;99.90;;;;;;5072012;28;20409;-76
2022/11/30 00:15:15;;;;;;;1999.90;999.90;;;3.50;99.90;;;;;;5072054;28;20028;-76
2022/11/30 00:17:44;;;;;;;1999.90;999.90;;;3.50;99.90;;;;;;5071276;28;20574;-80
2022/11/30 00:20:11;;;;;;;1999.90;999.90;;;3.40;99.90;;;;;;5072518;28;20031;-76
2022/11/30 00:22:37;;;;;;;1999.90;999.90;;;3.40;99.90;;;;;;5071709;28;20115;-76
2022/11/30 00:25:03;;;;;;;1999.90;999.90;;;3.40;99.90;;;;;;5072787;28;20099;-76
2022/11/30 00:27:33;;;;;;;1999.90;999.90;;;3.50;99.90;;;;;;5071993;28;20467;-76
2022/11/30 00:29:59;;;;;;;1999.90;999.90;;;3.50;99.90;;;;;;5068299;28;20032;-76
2022/11/30 00:32:28;;;;;;;1999.90;999.90;;;3.60;99.90;;;;;;5072387;28;20033;-81
2022/11/30 00:34:54;;;;;;;1999.90;999.90;;;3.60;99.90;;;;;;5072906;28;20031;-76
2022/11/30 00:37:19;;;;;;;1999.90;999.90;;;3.50;99.90;;;;;;5071913;28;20025;-76
2022/11/30 00:39:45;;;;;;;1999.90;999.90;;;3.60;99.90;;;;;;5071461;28;20028;-81
2022/11/30 00:42:11;;;;;;;1999.90;999.90;;;3.60;99.90;;;;;;5072680;28;20039;-76
2022/11/30 00:44:36;;;;;;;1999.90;999.90;;;3.60;99.90;;;;;;5071405;28;20031;-76
2022/11/30 00:47:02;;;;;;;1999.90;999.90;;;3.60;99.90;;;;;;5071717;28;20033;-76
2022/11/30 00:49:28;;;;;;;1999.90;999.90;;;3.70;99.90;;;;;;5068253;28;20055;-76
2022/11/30 00:51:54;;;;;;;1999.90;999.90;;;3.60;99.90;;;;;;5053247;28;20025;-76
2022/11/30 00:54:19;;;;;;;1999.90;999.90;;;3.50;99.90;;;;;;5068091;28;20424;-81
2022/11/30 00:56:45;;;;;;;1999.90;999.90;;;3.50;99.90;;;;;;5068182;28;20479;-76
2022/11/30 00:59:10;;;;;;;1999.90;999.90;;;3.60;99.90;;;;;;5052487;28;20506;-81
2022/11/30 01:01:36;;;;;;;1999.90;999.90;;;3.50;99.90;;;;;;5085013;28;20029;-76
2022/11/30 01:04:04;;;;;;;1999.90;999.90;;;3.50;99.90;;;;;;5070551;28;20080;-75
2022/11/30 01:06:30;;;;;;;1999.90;999.90;;;3.50;99.90;;;;;;5071806;28;20111;-81
2022/11/30 01:08:56;;;;;;;1999.90;999.90;;;3.60;99.90;;;;;;5070341;28;20158;-76
2022/11/30 01:11:25;;;;;;;1999.90;999.90;;;3.60;99.90;;;;;;5071276;28;20036;-81
2022/11/30 01:13:51;;;;;;;1999.90;999.90;;;3.70;99.90;;;;;;5072225;28;20025;-81
2022/11/30 01:16:23;;;;;;;1999.90;999.90;;;3.70;99.90;;;;;;5067116;28;20106;-81
2022/11/30 01:18:49;;;;;;;1999.90;999.90;;;3.80;99.90;;;;;;5073291;28;20008;-75
2022/11/30 01:21:19;;;;;;;1999.90;999.90;;;3.80;99.90;;;;;;5071114;28;20025;-81
2022/11/30 01:23:45;;;;;;;1999.90;999.90;;;3.80;99.90;;;;;;5071356;28;20175;-81
2022/11/30 01:26:11;;;;;;;1999.90;999.90;;;3.80;99.90;;;;;;5072239;28;20125;-76
2022/11/30 01:28:37;;;;;;;1999.90;999.90;;;3.90;99.90;;;;;;5071312;28;20031;-81
2022/11/30 01:31:08;;;;;;;1999.90;999.90;;;3.80;99.90;;;;;;5072387;28;20032;-76
2022/11/30 01:33:34;;;;;;;1999.90;999.90;;;3.70;99.90;;;;;;5066255;28;20052;-76
2022/11/30 01:36:03;;;;;;;1999.90;999.90;;;3.70;99.90;;;;;;5072343;28;20032;-81
2022/11/30 01:38:35;;;;;;;1999.90;999.90;;;3.70;99.90;;;;;;5072687;28;20027;-76
2022/11/30 01:41:01;;;;;;;1999.90;999.90;;;3.70;99.90;;;;;;5071676;28;20028;-75
2022/11/30 01:43:47;;;;;;;1999.90;999.90;;;3.80;99.90;;;;;;5070750;28;20107;-81
2022/11/30 01:46:37;;;;;;;1999.90;999.90;;;3.80;99.90;;;;;;5052746;28;20432;-75
2022/11/30 01:49:14;;;;;;;1999.90;999.90;;;3.80;99.90;;;;;;5055640;28;20071;-81
2022/11/30 01:51:52;;;;;;;1999.90;999.90;;;3.70;99.90;;;;;;5084338;28;20029;-76
2022/11/30 01:54:25;;;;;;;1999.90;999.90;;;3.90;99.90;;;;;;5067792;28;20091;-81
2022/11/30 01:57:03;;;;;;;;;;;3.90;99.90;;;;;;5067806;28;20029;-76
2022/11/30 01:59:29;;;;;;;1999.90;999.90;;;3.90;99.90;;;;;;5051905;28;20385;-81
2022/11/30 02:01:55;;;;;;;1999.90;999.90;;;3.90;99.90;;;;;;5085869;28;20131;-76
2022/11/30 02:04:23;;;;;;;1999.90;999.90;;;3.90;99.90;;;;;;5070866;28;20450;-81
2022/11/30 02:06:49;;;;;;;1999.90;999.90;;;3.80;99.90;;;;;;5072135;28;20028;-76
2022/11/30 02:09:18;;;;;;;1999.90;999.90;;;3.70;99.90;;;;;;5071482;28;20455;-75
2022/11/30 02:11:43;;;;;;;1999.90;999.90;;;3.60;99.90;;;;;;5070248;28;20484;-75
2022/11/30 02:14:22;;;;;;;1999.90;999.90;;;3.60;99.90;;;;;;5071954;28;20031;-81
2022/11/30 02:16:54;;;;;;;1999.90;999.90;;;3.60;99.90;;;;;;5067353;28;20104;-75
2022/11/30 02:19:40;;;;;;;1999.90;999.90;;;3.60;99.90;;;;;;5072149;28;20099;-81
2022/11/30 02:22:37;;;;;;;1999.90;999.90;;;3.60;99.90;;;;;;5070179;28;20029;-76
2022/11/30 02:25:03;;;;;;;1999.90;999.90;;;3.50;99.90;;;;;;5071480;28;20556;-75
2022/11/30 02:27:37;;;;;;;1999.90;999.90;;;3.50;99.90;;;;;;5071633;28;20032;-81
2022/11/30 02:30:17;;;;;;;1999.90;999.90;;;3.60;99.90;;;;;;5071889;28;20040;-81
2022/11/30 02:32:51;;;;;;;1999.90;999.90;;;3.50;99.90;;;;;;5070672;28;20059;-75
2022/11/30 02:35:23;;;;;;;1999.90;999.90;;;3.50;99.90;;;;;;5073589;28;20391;-81
2022/11/30 02:37:52;;;;;;;1999.90;999.90;;;3.50;99.90;;;;;;5075131;28;20025;-76
2022/11/30 02:40:20;;;;;;;1999.90;999.90;;;3.50;99.90;;;;;;5074970;28;20099;-81
2022/11/30 02:42:48;;;;;;;1999.90;999.90;;;3.60;99.90;;;;;;5075702;28;20035;-81
2022/11/30 02:45:14;;;;;;;1999.90;999.90;;;3.60;99.90;;;;;;5073870;28;20074;-81
2022/11/30 02:47:45;;;;;;;1999.90;999.90;;;3.60;99.90;;;;;;5073920;28;20025;-75
2022/11/30 02:50:19;;;;;;;1999.90;999.90;;;3.70;99.90;;;;;;5058055;28;20025;-76
2022/11/30 02:52:45;;;;;;;1999.90;999.90;;;3.80;99.90;;;;;;5054152;28;20482;-75
2022/11/30 02:55:15;;;;;;;1999.90;999.90;;;3.90;99.90;;;;;;5053687;28;20120;-81
2022/11/30 02:57:40;;;;;;;1999.90;999.90;;;3.90;99.90;;;;;;5055166;28;20029;-81
2022/11/30 03:00:09;;;;;;;1999.90;999.90;;;3.90;99.90;;;;;;5055091;28;20384;-75
2022/11/30 03:02:35;;;;;;;1999.90;999.90;;;3.90;99.90;;;;;;5061157;28;20449;-76
2022/11/30 03:05:01;;;;;;;1999.90;999.90;;;3.90;99.90;;;;;;5074819;28;20036;-75
2022/11/30 03:07:27;;;;;;;1999.90;999.90;;;3.90;99.90;;;;;;5074773;28;20051;-81
2022/11/30 03:09:52;;;;;;;1999.90;999.90;;;3.90;99.90;;;;;;5073437;28;20024;-81
2022/11/30 03:12:18;;;;;;;1999.90;999.90;;;4.00;99.90;;;;;;5073868;28;20031;-81
2022/11/30 03:14:44;;;;;;;1999.90;999.90;;;4.00;99.90;;;;;;5074835;28;20445;-81
2022/11/30 03:17:09;;;;;;;1999.90;999.90;;;4.00;99.90;;;;;;5073879;28;20052;-81
2022/11/30 03:19:35;;;;;;;1999.90;999.90;;;4.00;99.90;;;;;;5070539;28;20082;-75
2022/11/30 03:22:00;;;;;;;1999.90;999.90;;;3.90;99.90;;;;;;5074281;28;20020;-76
2022/11/30 03:24:26;;;;;;;1999.90;999.90;;;3.90;99.90;;;;;;5074570;28;20028;-76
2022/11/30 03:26:52;;;;;;;1999.90;999.90;;;3.90;99.90;;;;;;5073311;28;20031;-76
2022/11/30 03:29:17;;;;;;;1999.90;999.90;;;3.90;99.90;;;;;;5073282;28;20391;-81
2022/11/30 03:31:43;;;;;;;1999.90;999.90;;;3.90;99.90;;;;;;5074717;28;20502;-75
2022/11/30 03:34:09;;;;;;;1999.90;999.90;;;3.90;99.90;;;;;;5074276;28;20556;-81
2022/11/30 03:36:35;;;;;;;1999.90;999.90;;;3.80;99.90;;;;;;5073438;28;20425;-81
2022/11/30 03:39:01;;;;;;;1999.90;999.90;;;3.80;99.90;;;;;;5074247;28;20087;-81
2022/11/30 03:41:27;;;;;;;1999.90;999.90;;;3.90;99.90;;;;;;5073040;28;20016;-81
2022/11/30 03:43:53;;;;;;;1999.90;999.90;;;4.00;99.90;;;;;;5074927;28;20031;-81
2022/11/30 03:46:18;;;;;;;1999.90;999.90;;;4.00;99.90;;;;;;5093621;28;20121;-81
2022/11/30 03:48:44;;;;;;;1999.90;999.90;;;4.10;99.90;;;;;;5083467;28;20136;-81
2022/11/30 03:51:11;;;;;;;1999.90;999.90;;;4.20;99.90;;;;;;5054390;28;20025;-81
2022/11/30 03:53:37;;;;;;;1999.90;999.90;;;4.30;99.90;;;;;;5054150;28;20037;-81
2022/11/30 03:56:05;;;;;;;1999.90;999.90;;;4.30;99.90;;;;;;5053647;28;20579;-75
2022/11/30 03:58:32;;;;;;;1999.90;999.90;;;4.40;99.90;;;;;;5086444;28;20495;-81
2022/11/30 04:01:01;;;;;;;1999.90;999.90;;;4.40;99.90;;;;;;5053766;28;20104;-75
2022/11/30 04:03:28;;;;;;;1999.90;999.90;;;4.50;99.90;;;;;;5100090;28;20048;-75
2022/11/30 04:05:54;;;;;;;1999.90;999.90;;;4.60;99.90;;;;;;5073792;28;20021;-79
2022/11/30 04:08:20;;;;;;;1999.90;999.90;;;4.60;99.90;;;;;;5072098;28;20036;-81
2022/11/30 04:10:47;;;;;;;1999.90;999.90;;;4.70;99.90;;;;;;5071933;28;20390;-75
2022/11/30 04:13:12;;;;;;;1999.90;999.90;;;4.70;99.90;;;;;;5072541;28;20105;-81
2022/11/30 04:15:38;;;;;;;1999.90;999.90;;;4.70;99.90;;;;;;5072758;28;20488;-75
2022/11/30 04:18:04;;;;;;;1999.90;999.90;;;4.80;99.90;;;;;;5068468;28;20064;-76
2022/11/30 04:20:30;;;;;;;1999.90;999.90;;;4.80;99.90;;;;;;5072182;28;20514;-81
2022/11/30 04:22:57;;;;;;;1999.90;999.90;;;4.90;99.90;;;;;;5071892;28;20027;-81
2022/11/30 04:25:22;;;;;;;1999.90;999.90;;;4.80;99.90;;;;;;5071775;28;20021;-81
2022/11/30 04:27:48;;;;;;;1999.90;999.90;;;4.90;99.90;;;;;;5072858;28;20468;-75
2022/11/30 04:30:14;;;;;;;1999.90;999.90;;;4.90;99.90;;;;;;5072085;28;20025;-82
2022/11/30 04:32:40;;;;;;;1999.90;999.90;;;4.90;99.90;;;;;;5072321;28;20115;-75
2022/11/30 04:35:06;;;;;;;1999.90;999.90;;;4.90;99.90;;;;;;5073106;28;20111;-82
2022/11/30 04:37:32;;;;;;;1999.90;999.90;;;5.00;99.90;;;;;;5072883;28;20127;-75
2022/11/30 04:39:57;;;;;;;1999.90;999.90;;;5.00;99.90;;;;;;5071572;28;20430;-81
2022/11/30 04:42:23;;;;;;;1999.90;999.90;;;5.10;99.90;;;;;;5073683;28;20056;-75
2022/11/30 04:44:49;;;;;;;1999.90;999.90;;;5.10;99.90;;;;;;5080230;28;20051;-82
2022/11/30 04:47:14;;;;;;;1999.90;999.90;;;5.10;99.90;;;;;;5093089;28;20483;-82
2022/11/30 04:49:40;;;;;;;1999.90;999.90;;;5.20;99.90;;;;;;5098344;27;20025;-75
2022/11/30 04:52:06;;;;;;;1999.90;999.90;;;5.20;99.90;;;;;;5053415;28;20135;-81
2022/11/30 04:54:31;;;;;;;1999.90;999.90;;;5.20;99.90;;;;;;5051381;28;20037;-75
2022/11/30 04:56:57;;;;;;;1999.90;999.90;;;5.20;99.90;;;;;;5052580;28;20033;-76
2022/11/30 04:59:23;;;;;;;1999.90;999.90;;;5.30;99.90;;;;;;5052446;28;20021;-76
2022/11/30 05:01:48;;;;;;;1999.90;999.90;;;5.30;99.90;;;;;;5051949;28;20033;-75
2022/11/30 05:04:14;;;;;;;1999.90;999.90;;;5.30;99.90;;;;;;5071404;28;20040;-82
2022/11/30 05:06:40;;;;;;;1999.90;999.90;;;5.40;99.90;;;;;;5073122;28;20069;-75
2022/11/30 05:09:05;;;;;;;1999.90;999.90;;;5.40;99.90;;;;;;5071265;28;20025;-75
2022/11/30 05:11:31;;;;;;;1999.90;999.90;;;5.50;99.90;;;;;;5070691;28;20036;-75
2022/11/30 05:13:57;;;;;;;1999.90;999.90;;;5.50;99.90;;;;;;5070179;28;20024;-75
2022/11/30 05:16:22;;;;;;;1999.90;999.90;;;5.50;99.90;;;;;;5071799;28;20028;-75
2022/11/30 05:18:48;;;;;;;1999.90;999.90;;;5.60;99.90;;;;;;5066743;28;20438;-75
2022/11/30 05:21:14;;;;;;;1999.90;999.90;;;5.60;99.90;;;;;;5071050;28;20025;-75
2022/11/30 05:23:40;;;;;;;1999.90;999.90;;;5.60;99.90;;;;;;5070311;28;20480;-81
2022/11/30 05:26:05;;;;;;;1999.90;999.90;;;5.60;99.90;;;;;;5070393;28;20021;-82
2022/11/30 05:28:31;;;;;;;1999.90;999.90;;;5.60;99.90;;;;;;5071399;28;20024;-75
2022/11/30 05:31:02;;;;;;;1999.90;999.90;;;5.60;99.90;;;;;;5071036;28;20033;-82
2022/11/30 05:33:28;;;;;;;1999.90;999.90;;;5.60;99.90;;;;;;5072565;28;20025;-75
2022/11/30 05:35:54;;;;;;;1999.90;999.90;;;5.70;99.90;;;;;;5072082;28;20111;-75
2022/11/30 05:38:19;;;;;;;1999.90;999.90;;;5.70;99.90;;;;;;5071246;28;20035;-75
2022/11/30 05:40:45;;;;;;;1999.90;999.90;;;5.60;99.90;;;;;;5071850;28;20024;-75
2022/11/30 05:43:11;;;;;;;1999.90;999.90;;;5.60;99.90;;;;;;5070968;28;20537;-75
2022/11/30 05:45:37;;;;;;;1999.90;999.90;;;5.60;99.90;;;;;;5087231;28;20019;-76
2022/11/30 05:48:03;;;;;;;1999.90;999.90;;;5.60;99.90;;;;;;5090989;28;20027;-82
2022/11/30 05:50:29;;;;;;;1999.90;999.90;;;5.60;99.90;;;;;;5074365;28;20108;-75
2022/11/30 05:52:55;;;;;;;1999.90;999.90;;;5.60;99.90;;;;;;5052201;28;20104;-82
2022/11/30 05:55:24;;;;;;;1999.90;999.90;;;5.60;99.90;;;;;;5050923;28;20029;-76
2022/11/30 05:57:50;;;;;;;1999.90;999.90;;;5.60;99.90;;;;;;5069922;28;20028;-82
2022/11/30 06:00:16;;;;;;;1999.90;999.90;;;5.70;99.90;;;;;;5072015;28;20403;-82
2022/11/30 06:02:41;;;;;;;1999.90;999.90;;;5.60;99.90;;;;;;5071667;28;20083;-75
2022/11/30 06:05:07;;;;;;;1999.90;999.90;;;5.60;99.90;;;;;;5070718;28;20064;-82
2022/11/30 06:07:33;;;;;;;1999.90;999.90;;;5.60;99.90;;;;;;5070537;28;20112;-75
2022/11/30 06:09:59;;;;;;;1999.90;999.90;;;5.60;99.90;;;;;;5073599;28;20033;-75
2022/11/30 06:12:25;;;;;;;1999.90;999.90;;;5.60;99.90;;;;;;5074137;28;20170;-82
2022/11/30 06:14:51;;;;;;;1999.90;999.90;;;5.70;99.90;;;;;;5075190;28;20024;-75
2022/11/30 06:17:16;;;;;;;1999.90;999.90;;;5.70;99.90;;;;;;5075783;28;20031;-82
2022/11/30 06:19:42;;;;;;;1999.90;999.90;;;5.70;99.90;;;;;;5073758;28;20033;-81
2022/11/30 06:22:08;;;;;;;1999.90;999.90;;;5.80;99.90;;;;;;5075874;28;20020;-82
2022/11/30 06:24:33;;;;;;;1999.90;999.90;;;5.80;99.90;;;;;;5074088;28;20070;-75
2022/11/30 06:26:59;;;;;;;1999.90;999.90;;;5.80;99.90;;;;;;5075423;28;20035;-75
2022/11/30 06:29:24;;;;;;;1999.90;999.90;;;5.80;99.90;;;;;;5073740;28;20047;-75
2022/11/30 06:31:50;;;;;;;1999.90;999.90;;;5.80;99.90;;;;;;5074042;28;20025;-75
2022/11/30 06:34:16;;;;;;;1999.90;999.90;;;5.80;99.90;;;;;;5075532;28;20544;-82
2022/11/30 06:36:42;;;;;;;1999.90;999.90;;;5.80;99.90;;;;;;5062764;28;20029;-82
2022/11/30 06:39:09;;;;;;;1999.90;999.90;;;5.80;99.90;;;;;;5076852;28;20446;-82
2022/11/30 06:41:34;;;;;;;1999.90;999.90;;;5.80;99.90;;;;;;5074483;28;20112;-81
2022/11/30 06:44:00;;;;;;;1999.90;999.90;;;5.80;99.90;;;;;;5074970;28;20111;-81
2022/11/30 06:46:26;;;;;;;1999.90;999.90;;;5.70;99.90;;;;;;5100638;27;20040;-81
2022/11/30 06:48:51;;;;;;;1999.90;999.90;;;5.70;99.90;;;;;;5074820;28;20028;-84
2022/11/30 06:51:19;;;;;;;1999.90;999.90;;;5.60;99.90;;;;;;5072979;28;20032;-82
2022/11/30 06:53:46;;;;;;;1999.90;999.90;;;5.60;99.90;;;;;;5083567;28;20040;-82
2022/11/30 06:56:12;;;;;;;1999.90;999.90;;;5.60;99.90;;;;;;5073064;28;20388;-76
2022/11/30 06:58:38;;;;;;;1999.90;999.90;;;5.50;99.90;;;;;;5073051;28;20025;-83
2022/11/30 07:01:05;;;;;;;1999.90;999.90;;;5.50;99.90;;;;;;5068851;28;20518;-82
2022/11/30 07:03:31;;;;;;;1999.90;999.90;;;5.50;99.90;;;;;;5072727;28;20055;-77
2022/11/30 07:05:57;;;;;;;1999.90;999.90;;;5.50;99.90;;;;;;5077104;28;20032;-76
2022/11/30 07:08:23;;;;;;;1999.90;999.90;;;5.50;99.90;;;;;;5069881;28;20032;-77
2022/11/30 07:10:48;;;;;;;1999.90;999.90;;;5.50;99.90;;;;;;5074537;28;20036;-76
2022/11/30 07:13:17;;;;;;;1999.90;999.90;;;5.50;99.90;;;;;;5072524;28;20031;-76
2022/11/30 07:15:43;;;;;;;1999.90;999.90;;;5.60;99.90;;;;;;5069816;28;20025;-76
2022/11/30 07:18:10;;;;;;;1999.90;999.90;;;5.60;99.90;;;;;;5071467;28;20036;-76
2022/11/30 07:20:37;;;;;;;1999.90;999.90;;;5.60;99.90;;;;;;5067764;28;20406;-76
2022/11/30 07:26:08;;;;;;;1999.90;999.90;;;5.60;99.90;;;;;;5065190;28;20463;-81
2022/11/30 07:28:45;;;;;;;1999.90;999.90;;;5.60;99.90;;;;;;5073158;28;20024;-81
2022/11/30 07:31:33;;;;;;;1999.90;999.90;;;5.60;99.90;;;;;;5069369;28;20029;-81
2022/11/30 07:34:04;;;;;;;1999.90;999.90;;;5.60;99.90;;;;;;5066412;28;20029;-76
2022/11/30 07:36:30;;;;;;;1999.90;999.90;;;5.50;99.90;;;;;;5073206;28;20098;-76
2022/11/30 07:38:56;;;;;;;1999.90;999.90;;;5.50;99.90;;;;;;5070270;28;20024;-81
2022/11/30 07:41:22;;;;;;;1999.90;999.90;;;5.50;99.90;;;;;;5067785;28;20028;-81
2022/11/30 07:43:48;;;;;;;1999.90;999.90;;;5.50;99.90;;;;;;5066171;28;20020;-81
2022/11/30 07:46:15;;;;;;;1999.90;999.90;;;5.60;99.90;;;;;;5076666;28;20035;-76
2022/11/30 07:48:41;;;;;;;1999.90;999.90;;;5.60;99.90;;;;;;5091915;28;20534;-77
2022/11/30 07:51:12;;;;;;;1999.90;999.90;;;5.60;99.90;;;;;;5064723;28;20036;-80
2022/11/30 07:53:38;;;;;;;1999.90;999.90;;;5.60;99.90;;;;;;5073613;28;20119;-81
2022/11/30 07:56:10;;;;;;;1999.90;999.90;;;5.70;99.90;;;;;;5068350;28;20823;-79
2022/11/30 07:58:36;;;;;;;1999.90;999.90;;;5.60;99.90;;;;;;5060407;28;20056;-82
2022/11/30 08:01:08;;;;;;;1999.90;999.90;;;5.70;99.90;;;;;;5075109;28;20052;-77
2022/11/30 08:03:35;;;;;;;1999.90;999.90;;;5.70;99.90;;;;;;5074249;28;20071;-78
2022/11/30 08:06:06;;;;;;;1999.90;999.90;;;5.80;99.90;;;;;;5091359;28;20031;-77
2022/11/30 08:08:38;;;;;;;1999.90;999.90;;;5.80;99.90;;;;;;5068688;28;20073;-77
2022/11/30 08:11:06;;;;;;;1999.90;999.90;;;5.90;99.90;;;;;;5076072;28;20103;-81
2022/11/30 08:13:32;;;;;;;1999.90;999.90;;;5.80;99.90;;;;;;5056243;28;20544;-78
2022/11/30 08:16:02;;;;;;;1999.90;999.90;;;5.90;99.90;;;;;;5067066;28;20487;-78
2022/11/30 08:18:28;;;;;;;1999.90;999.90;;;5.90;99.90;;;;;;5070872;28;20535;-77
2022/11/30 08:20:59;;;;;;;1999.90;999.90;;;5.90;99.90;;;;;;5070124;28;20100;-82
2022/11/30 08:23:39;;;;;;;1999.90;999.90;;;6.00;99.90;;;;;;5069945;28;20017;-78
2022/11/30 08:26:10;;;;;;;1999.90;999.90;;;6.10;99.90;;;;;;5089136;28;20081;-78
2022/11/30 08:28:36;;;;;;;1999.90;999.90;;;6.10;99.90;;;;;;5078806;28;20052;-78
2022/11/30 08:31:08;;;;;;;1999.90;999.90;;;6.10;99.90;;;;;;5075573;28;20056;-78
2022/11/30 08:33:34;;;;;;;1999.90;999.90;;;6.10;99.90;;;;;;5071185;28;20034;-78
2022/11/30 08:36:11;;;;;;;1999.90;999.90;;;6.10;99.90;;;;;;5070119;28;20033;-82
2022/11/30 08:38:37;;;;;;;1999.90;999.90;;;6.20;99.90;;;;;;5073993;28;20027;-81
2022/11/30 08:41:05;;;;;;;1999.90;999.90;;;6.20;99.90;;;;;;5077012;28;20024;-78
2022/11/30 08:43:31;;;;;;;1999.90;999.90;;;6.30;99.90;;;;;;5071263;28;20050;-79
2022/11/30 08:45:56;;;;;;;1999.90;999.90;;;6.20;99.90;;;;;;5090024;28;20035;-81
2022/11/30 08:48:22;;;;;;;1999.90;999.90;;;6.30;99.90;;;;;;5073435;28;20043;-78
2022/11/30 08:50:48;;;;;;;1999.90;999.90;;;6.40;99.90;;;;;;5083775;28;20059;-82
2022/11/30 08:53:14;;;;;;;1999.90;999.90;;;6.40;99.90;;;;;;5080242;28;20452;-79
2022/11/30 08:55:40;;;;;;;1999.90;999.90;;;6.30;99.90;;;;;;5085533;28;20495;-79
2022/11/30 08:58:05;;;;;;;1999.90;999.90;;;6.40;99.90;;;;;;5070865;28;20593;-81
2022/11/30 09:00:31;;;;;;;1999.90;999.90;;;6.50;99.90;;;;;;5064670;28;20108;-82
2022/11/30 09:02:57;;;;;;;1999.90;999.90;;;6.50;99.90;;;;;;5069883;28;20049;-78
2022/11/30 09:05:23;;;;;;;1999.90;999.90;;;6.60;99.90;;;;;;5068656;28;20025;-79
2022/11/30 09:07:48;;;;;;;1999.90;999.90;;;6.60;99.90;;;;;;5065975;28;20040;-79
2022/11/30 09:10:14;;;;;;;1999.90;999.90;;;6.70;99.90;;;;;;5086315;28;20119;-79
2022/11/30 09:12:40;;;;;;;1999.90;999.90;;;6.70;99.90;;;;;;5091408;28;20106;-81
2022/11/30 09:15:07;;;;;;;1999.90;999.90;;;6.80;99.90;;;;;;5083084;28;20024;-79
2022/11/30 09:17:33;;;;;;;1999.90;999.90;;;6.90;99.90;;;;;;5078572;28;20039;-82
2022/11/30 09:19:59;;;;;;;1999.90;999.90;;;6.90;99.90;;;;;;5072600;28;20028;-79
2022/11/30 09:22:26;;;;;;;1999.90;999.90;;;7.00;99.90;;;;;;5068977;28;20091;-79
2022/11/30 09:24:52;;;;;;;1999.90;999.90;;;7.00;99.90;;;;;;5071066;28;20016;-81
2022/11/30 09:27:18;;;;;;;1999.90;999.90;;;7.10;99.90;;;;;;5071062;28;20037;-81
2022/11/30 09:29:44;;;;;;;1999.90;999.90;;;7.10;99.90;;;;;;5072634;28;20020;-79
2022/11/30 09:32:09;;;;;;;1999.90;999.90;;;7.00;99.90;;;;;;5075839;28;20085;-79
2022/11/30 09:34:35;;;;;;;1999.90;999.90;;;6.90;99.90;;;;;;5068487;28;20500;-79
2022/11/30 09:37:00;;;;;;;1999.90;999.90;;;7.00;99.90;;;;;;5066300;28;20067;-82
2022/11/30 09:39:26;;;;;;;1999.90;999.90;;;7.00;99.90;;;;;;5064605;28;20039;-79
2022/11/30 09:42:04;;;;;;;1999.90;999.90;;;7.20;99.90;;;;;;5070283;28;20051;-82
2022/11/30 09:44:45;;;;;;;1999.90;999.90;;;7.10;99.90;;;;;;5063905;28;20094;-79
2022/11/30 09:47:19;;;;;;;1999.90;999.90;;;7.20;99.90;;;;;;5069733;28;20753;-79
2022/11/30 09:49:46;;;;;;;1999.90;999.90;;;7.10;99.90;;;;;;5074745;28;20032;-82
2022/11/30 09:52:25;;;;;;;1999.90;999.90;;;7.00;99.90;;;;;;5070305;28;20028;-79
2022/11/30 09:54:51;;;;;;;1999.90;999.90;;;6.90;99.90;;;;;;5079497;28;20032;-81
2022/11/30 09:57:25;;;;;;;1999.90;999.90;;;6.70;99.90;;;;;;5069804;28;20368;-79
2022/11/30 09:59:58;;;;;;;1999.90;999.90;;;6.70;99.90;;;;;;5067606;28;20025;-79
2022/11/30 10:02:37;;;;;;;1999.90;999.90;;;6.80;99.90;;;;;;5068453;28;20036;-81
2022/11/30 10:05:10;;;;;;;1999.90;999.90;;;7.00;99.90;;;;;;5069336;28;20093;-81
2022/11/30 10:08:11;;;;;;;1999.90;999.90;;;6.80;99.90;;;;;;5068364;28;20040;-81
2022/11/30 10:10:55;;;;;;;1999.90;999.90;;;6.80;99.90;;;;;;5071223;28;20483;-79
2022/11/30 10:13:48;;;;;;;1999.90;999.90;;;6.90;99.90;;;;;;5049649;28;20064;-78
2022/11/30 10:16:35;;;;;;;1999.90;999.90;;;7.50;99.90;;;;;;5080091;28;20407;-82
2022/11/30 10:19:21;;;;;;;1999.90;999.90;;;8.00;99.90;;;;;;5066542;28;20028;-82
2022/11/30 10:22:16;;;;;;;1999.90;999.90;;;8.00;99.90;;;;;;5061178;28;20027;-81
2022/11/30 10:24:53;;;;;;;1999.90;999.90;;;7.90;99.90;;;;;;5058981;28;20100;-79
2022/11/30 10:27:40;;;;;;;1999.90;999.90;;;7.80;99.90;;;;;;5073769;28;20027;-79
2022/11/30 10:30:14;;;;;;;1999.90;999.90;;;7.80;99.90;;;;;;5075201;28;20036;-81
2022/11/30 10:32:43;;;;;;;1999.90;999.90;;;8.00;99.90;;;;;;5073226;28;20107;-81
2022/11/30 10:35:28;;;;;;;1999.90;999.90;;;8.20;99.90;;;;;;5072558;28;20059;-81
2022/11/30 10:37:57;;;;;;;1999.90;999.90;;;8.50;99.90;;;;;;5067772;28;20105;-79
2022/11/30 10:40:39;;;;;;;1999.90;999.90;;;8.10;99.90;;;;;;5074658;28;20052;-79
2022/11/30 10:43:12;;;;;;;1999.90;999.90;;;7.90;99.90;;;;;;5069867;28;20020;-79
2022/11/30 10:45:45;;;;;;;1999.90;999.90;;;8.00;99.90;;;;;;5074999;28;20505;-79
2022/11/30 10:48:20;;;;;;;1999.90;999.90;;;8.20;99.90;;;;;;5058961;28;20077;-81
2022/11/30 10:50:46;;;;;;;1999.90;999.90;;;8.40;99.90;;;;;;5059857;28;20414;-79
2022/11/30 10:53:12;;;;;;;1999.90;999.90;;;8.60;99.90;;;;;;5067553;28;20029;-79
2022/11/30 10:55:42;;;;;;;1999.90;999.90;;;8.80;99.90;;;;;;5066793;28;20372;-82
2022/11/30 10:58:23;;;;;;;1999.90;999.90;;;8.90;99.90;;;;;;5067491;28;20028;-82
2022/11/30 11:01:01;;;;;;;1999.90;999.90;;;8.90;99.90;;;;;;5074846;28;20063;-82
2022/11/30 11:03:27;;;;;;;1999.90;999.90;;;9.20;99.90;;;;;;5067194;28;20147;-81
2022/11/30 11:06:13;;;;;;;1999.90;999.90;;;9.50;99.90;;;;;;5073212;28;20515;-79
2022/11/30 11:08:41;;;;;;;1999.90;999.90;;;9.60;99.90;;;;;;5079279;28;20391;-79
2022/11/30 11:11:43;;;;;;;1999.90;999.90;;;8.90;99.90;;;;;;5072899;28;20031;-82
2022/11/30 11:14:18;;;;;;;1999.90;999.90;;;8.70;99.90;;;;;;5078748;28;20458;-82
2022/11/30 11:17:01;;;;;;;1999.90;999.90;;;8.80;99.90;;;;;;5070778;28;20035;-80
2022/11/30 11:19:37;;;;;;;1999.90;999.90;;;8.70;99.90;;;;;;5086601;28;20077;-80
2022/11/30 11:22:20;;;;;;;1999.90;999.90;;;8.80;99.90;;;;;;5073218;28;20130;-83
2022/11/30 11:24:49;;;;;;;1999.90;999.90;;;8.90;99.90;;;;;;5071480;28;20029;-82
2022/11/30 11:27:32;;;;;;;1999.90;999.90;;;9.00;99.90;;;;;;5072991;28;20040;-83
2022/11/30 11:30:15;;;;;;;1999.90;999.90;;;9.10;99.90;;;;;;5073667;28;20029;-80
2022/11/30 11:32:55;;;;;;;;;;;9.30;99.90;;;;;;5074495;28;20032;-80
2022/11/30 11:35:51;;;;;;;1999.90;999.90;;;9.20;99.90;;;;;;5078035;28;19908;-80
2022/11/30 11:38:27;;;;;;;1999.90;999.90;;;9.10;99.90;;;;;;5077069;28;20027;-80
2022/11/30 11:40:59;;;;;;;1999.90;999.90;;;9.00;99.90;;;;;;5081970;28;20020;-80
2022/11/30 11:43:28;;;;;;;1999.90;999.90;;;9.00;99.90;;;;;;5076244;28;20078;-80
2022/11/30 11:45:56;;;;;;;1999.90;999.90;;;9.30;99.90;;;;;;5076711;28;20081;-83
2022/11/30 11:48:40;;;;;;;1999.90;999.90;;;9.60;99.90;;;;;;5074321;28;20020;-83
2022/11/30 11:51:09;;;;;;;1999.90;999.90;;;9.90;99.90;;;;;;5078514;28;20032;-82
2022/11/30 11:53:46;;;;;;;1999.90;999.90;;;10.00;99.90;;;;;;5071281;28;20495;-80
2022/11/30 11:56:27;;;;;;;1999.90;999.90;;;10.10;99.90;;;;;;5058289;28;20036;-80
2022/11/30 11:59:01;;;;;;;1999.90;999.90;;;10.10;99.90;;;;;;5081044;28;20451;-82
2022/11/30 12:01:30;;;;;;;1999.90;999.90;;;10.20;99.90;;;;;;5072791;28;20017;-80
2022/11/30 12:04:10;;;;;;;1999.90;999.90;;;10.20;99.90;;;;;;5069378;28;20514;-80
2022/11/30 12:06:38;;;;;;;1999.90;999.90;;;10.30;99.90;;;;;;5069631;28;20388;-80
2022/11/30 12:09:13;;;;;;;1999.90;999.90;;;10.30;99.90;;;;;;5065537;28;20563;-82
2022/11/30 12:11:43;;;;;;;1999.90;999.90;;;10.50;99.90;;;;;;5068859;28;20024;-82
2022/11/30 12:14:15;;;;;;;1999.90;999.90;;;10.60;99.90;;;;;;5068880;28;20020;-80
2022/11/30 12:17:04;;;;;;;1999.90;999.90;;;10.90;99.90;;;;;;5068798;28;20036;-82
2022/11/30 12:19:57;;;;;;;1999.90;999.90;;;10.90;99.90;;;;;;5067534;28;20013;-80
2022/11/30 12:22:37;;;;;;;1999.90;999.90;;;10.80;99.90;;;;;;5065564;28;20033;-80